sensor_id;sensor_type;location;lat;lon;timestamp;temperature;humidity
57552;DHT22;43379;48.160;14.036;2023-05-29T00:00:18;16.60;93.40
57552;DHT22;43379;48.160;14.036;2023-05-29T00:02:46;16.50;93.40
57552;DHT22;43379;48.160;14.036;2023-05-29T00:05:12;16.40;93.70
57552;DHT22;43379;48.160;14.036;2023-05-29T00:07:39;16.40;94.00
57552;DHT22;43379;48.160;14.036;2023-05-29T00:10:06;16.40;93.80
57552;DHT22;43379;48.160;14.036;2023-05-29T00:12:32;16.30;94.10
57552;DHT22;43379;48.160;14.036;2023-05-29T00:14:58;16.30;94.00
57552;DHT22;43379;48.160;14.036;2023-05-29T00:17:24;16.30;94.20
57552;DHT22;43379;48.160;14.036;2023-05-29T00:19:50;16.20;94.20
57552;DHT22;43379;48.160;14.036;2023-05-29T00:22:16;16.20;94.30
57552;DHT22;43379;48.160;14.036;2023-05-29T00:24:41;16.10;94.30
57552;DHT22;43379;48.160;14.036;2023-05-29T00:27:07;16.20;94.50
57552;DHT22;43379;48.160;14.036;2023-05-29T00:29:34;16.20;94.60
57552;DHT22;43379;48.160;14.036;2023-05-29T00:32:01;16.20;94.60
57552;DHT22;43379;48.160;14.036;2023-05-29T00:34:27;16.10;94.60
57552;DHT22;43379;48.160;14.036;2023-05-29T00:36:53;16.00;94.70
57552;DHT22;43379;48.160;14.036;2023-05-29T00:39:21;16.00;94.60
57552;DHT22;43379;48.160;14.036;2023-05-29T00:41:47;16.10;94.90
57552;DHT22;43379;48.160;14.036;2023-05-29T00:44:18;16.00;95.00
57552;DHT22;43379;48.160;14.036;2023-05-29T00:46:43;16.00;95.10
57552;DHT22;43379;48.160;14.036;2023-05-29T00:49:09;16.00;95.20
57552;DHT22;43379;48.160;14.036;2023-05-29T00:51:37;16.00;95.20
57552;DHT22;43379;48.160;14.036;2023-05-29T00:54:04;16.00;95.10
57552;DHT22;43379;48.160;14.036;2023-05-29T00:56:32;15.90;95.10
57552;DHT22;43379;48.160;14.036;2023-05-29T00:58:58;15.90;95.30
57552;DHT22;43379;48.160;14.036;2023-05-29T01:01:24;15.90;95.60
57552;DHT22;43379;48.160;14.036;2023-05-29T01:03:51;15.80;95.70
57552;DHT22;43379;48.160;14.036;2023-05-29T01:06:20;15.80;96.00
57552;DHT22;43379;48.160;14.036;2023-05-29T01:08:46;15.80;96.10
57552;DHT22;43379;48.160;14.036;2023-05-29T01:11:45;15.70;96.30
57552;DHT22;43379;48.160;14.036;2023-05-29T01:14:29;15.70;96.50
57552;DHT22;43379;48.160;14.036;2023-05-29T01:17:24;15.70;96.60
57552;DHT22;43379;48.160;14.036;2023-05-29T01:28:04;15.50;96.80
57552;DHT22;43379;48.160;14.036;2023-05-29T01:30:31;15.50;96.70
57552;DHT22;43379;48.160;14.036;2023-05-29T01:32:58;15.50;96.90
57552;DHT22;43379;48.160;14.036;2023-05-29T01:35:25;15.50;96.80
57552;DHT22;43379;48.160;14.036;2023-05-29T01:37:51;15.40;96.60
57552;DHT22;43379;48.160;14.036;2023-05-29T01:40:17;15.40;97.10
57552;DHT22;43379;48.160;14.036;2023-05-29T01:42:43;15.30;97.00
57552;DHT22;43379;48.160;14.036;2023-05-29T01:45:10;15.40;97.00
57552;DHT22;43379;48.160;14.036;2023-05-29T01:47:36;15.40;97.10
57552;DHT22;43379;48.160;14.036;2023-05-29T01:50:04;15.40;97.20
57552;DHT22;43379;48.160;14.036;2023-05-29T01:52:30;15.30;97.20
57552;DHT22;43379;48.160;14.036;2023-05-29T01:54:56;15.30;97.40
57552;DHT22;43379;48.160;14.036;2023-05-29T01:57:22;15.30;97.30
57552;DHT22;43379;48.160;14.036;2023-05-29T01:59:47;15.20;97.20
57552;DHT22;43379;48.160;14.036;2023-05-29T02:02:14;15.20;97.20
57552;DHT22;43379;48.160;14.036;2023-05-29T02:04:40;15.20;97.20
57552;DHT22;43379;48.160;14.036;2023-05-29T02:07:06;15.10;97.20
57552;DHT22;43379;48.160;14.036;2023-05-29T02:09:32;15.10;97.50
57552;DHT22;43379;48.160;14.036;2023-05-29T02:11:58;15.10;97.50
57552;DHT22;43379;48.160;14.036;2023-05-29T02:14:24;15.00;97.70
57552;DHT22;43379;48.160;14.036;2023-05-29T02:16:52;14.90;97.70
57552;DHT22;43379;48.160;14.036;2023-05-29T02:19:18;14.90;97.80
57552;DHT22;43379;48.160;14.036;2023-05-29T02:21:44;14.90;98.00
57552;DHT22;43379;48.160;14.036;2023-05-29T02:24:12;14.90;98.10
57552;DHT22;43379;48.160;14.036;2023-05-29T02:26:37;14.90;98.10
57552;DHT22;43379;48.160;14.036;2023-05-29T02:29:03;14.90;98.10
57552;DHT22;43379;48.160;14.036;2023-05-29T02:31:32;14.90;98.00
57552;DHT22;43379;48.160;14.036;2023-05-29T02:33:58;14.90;98.00
57552;DHT22;43379;48.160;14.036;2023-05-29T02:36:23;14.80;98.10
57552;DHT22;43379;48.160;14.036;2023-05-29T02:38:49;14.70;98.40
57552;DHT22;43379;48.160;14.036;2023-05-29T02:41:15;14.70;98.40
57552;DHT22;43379;48.160;14.036;2023-05-29T02:43:41;14.60;98.40
57552;DHT22;43379;48.160;14.036;2023-05-29T02:46:06;14.60;98.50
57552;DHT22;43379;48.160;14.036;2023-05-29T02:48:32;14.60;98.60
57552;DHT22;43379;48.160;14.036;2023-05-29T02:50:58;14.50;98.70
57552;DHT22;43379;48.160;14.036;2023-05-29T02:53:23;14.50;98.70
57552;DHT22;43379;48.160;14.036;2023-05-29T02:55:49;14.50;98.80
57552;DHT22;43379;48.160;14.036;2023-05-29T02:58:16;14.50;98.70
57552;DHT22;43379;48.160;14.036;2023-05-29T03:00:42;14.60;98.50
57552;DHT22;43379;48.160;14.036;2023-05-29T03:03:08;14.50;98.60
57552;DHT22;43379;48.160;14.036;2023-05-29T03:05:34;14.50;98.50
57552;DHT22;43379;48.160;14.036;2023-05-29T03:07:59;14.40;98.60
57552;DHT22;43379;48.160;14.036;2023-05-29T03:10:25;14.30;98.80
57552;DHT22;43379;48.160;14.036;2023-05-29T03:12:50;14.30;98.80
57552;DHT22;43379;48.160;14.036;2023-05-29T03:15:16;14.30;98.90
57552;DHT22;43379;48.160;14.036;2023-05-29T03:17:45;14.40;98.90
57552;DHT22;43379;48.160;14.036;2023-05-29T03:20:11;14.20;98.90
57552;DHT22;43379;48.160;14.036;2023-05-29T03:22:37;14.30;99.10
57552;DHT22;43379;48.160;14.036;2023-05-29T03:25:03;14.30;99.10
57552;DHT22;43379;48.160;14.036;2023-05-29T03:27:30;14.20;99.20
57552;DHT22;43379;48.160;14.036;2023-05-29T03:29:56;14.20;99.40
57552;DHT22;43379;48.160;14.036;2023-05-29T03:32:21;14.20;99.50
57552;DHT22;43379;48.160;14.036;2023-05-29T03:34:47;14.30;99.30
57552;DHT22;43379;48.160;14.036;2023-05-29T03:37:13;14.40;99.30
57552;DHT22;43379;48.160;14.036;2023-05-29T03:39:39;14.30;99.40
57552;DHT22;43379;48.160;14.036;2023-05-29T03:42:05;14.20;99.30
57552;DHT22;43379;48.160;14.036;2023-05-29T03:44:30;14.10;99.50
57552;DHT22;43379;48.160;14.036;2023-05-29T03:46:56;14.10;99.70
57552;DHT22;43379;48.160;14.036;2023-05-29T03:49:22;14.10;99.80
57552;DHT22;43379;48.160;14.036;2023-05-29T03:51:47;14.20;99.90
57552;DHT22;43379;48.160;14.036;2023-05-29T03:54:13;14.20;99.90
57552;DHT22;43379;48.160;14.036;2023-05-29T03:56:39;14.10;99.90
57552;DHT22;43379;48.160;14.036;2023-05-29T03:59:04;14.10;99.90
57552;DHT22;43379;48.160;14.036;2023-05-29T04:01:30;14.20;99.90
57552;DHT22;43379;48.160;14.036;2023-05-29T04:03:56;14.10;99.90
57552;DHT22;43379;48.160;14.036;2023-05-29T04:06:21;14.10;99.90
57552;DHT22;43379;48.160;14.036;2023-05-29T04:08:48;14.10;99.90
57552;DHT22;43379;48.160;14.036;2023-05-29T04:11:14;14.10;99.90
57552;DHT22;43379;48.160;14.036;2023-05-29T04:13:40;14.10;99.90
57552;DHT22;43379;48.160;14.036;2023-05-29T04:16:06;14.20;99.90
57552;DHT22;43379;48.160;14.036;2023-05-29T04:18:32;14.30;99.90
57552;DHT22;43379;48.160;14.036;2023-05-29T04:20:58;14.30;99.90
57552;DHT22;43379;48.160;14.036;2023-05-29T04:23:23;14.30;99.90
57552;DHT22;43379;48.160;14.036;2023-05-29T04:25:49;14.40;99.90
57552;DHT22;43379;48.160;14.036;2023-05-29T04:28:18;14.40;99.90
57552;DHT22;43379;48.160;14.036;2023-05-29T04:30:46;14.50;99.90
57552;DHT22;43379;48.160;14.036;2023-05-29T04:33:12;14.50;99.90
57552;DHT22;43379;48.160;14.036;2023-05-29T04:35:39;14.60;99.90
57552;DHT22;43379;48.160;14.036;2023-05-29T04:38:09;14.70;99.90
57552;DHT22;43379;48.160;14.036;2023-05-29T04:40:34;14.70;99.80
57552;DHT22;43379;48.160;14.036;2023-05-29T04:43:02;14.70;99.60
57552;DHT22;43379;48.160;14.036;2023-05-29T04:45:30;14.80;99.80
57552;DHT22;43379;48.160;14.036;2023-05-29T04:47:56;14.90;99.70
57552;DHT22;43379;48.160;14.036;2023-05-29T04:50:22;14.90;99.50
57552;DHT22;43379;48.160;14.036;2023-05-29T04:52:48;15.00;99.40
57552;DHT22;43379;48.160;14.036;2023-05-29T04:55:14;15.10;99.30
57552;DHT22;43379;48.160;14.036;2023-05-29T04:57:40;15.10;99.30
57552;DHT22;43379;48.160;14.036;2023-05-29T05:00:07;15.20;99.30
57552;DHT22;43379;48.160;14.036;2023-05-29T05:02:34;15.30;99.20
57552;DHT22;43379;48.160;14.036;2023-05-29T05:05:00;15.40;99.00
57552;DHT22;43379;48.160;14.036;2023-05-29T05:07:25;15.60;98.90
57552;DHT22;43379;48.160;14.036;2023-05-29T05:09:51;15.60;98.60
57552;DHT22;43379;48.160;14.036;2023-05-29T05:12:16;15.70;99.30
57552;DHT22;43379;48.160;14.036;2023-05-29T05:14:42;15.80;99.00
57552;DHT22;43379;48.160;14.036;2023-05-29T05:17:08;15.90;98.90
57552;DHT22;43379;48.160;14.036;2023-05-29T05:19:33;16.00;98.60
57552;DHT22;43379;48.160;14.036;2023-05-29T05:21:59;16.10;98.20
57552;DHT22;43379;48.160;14.036;2023-05-29T05:24:25;16.30;98.30
57552;DHT22;43379;48.160;14.036;2023-05-29T05:26:50;16.40;97.70
57552;DHT22;43379;48.160;14.036;2023-05-29T05:29:16;16.50;97.90
57552;DHT22;43379;48.160;14.036;2023-05-29T05:31:42;16.60;97.70
57552;DHT22;43379;48.160;14.036;2023-05-29T05:34:07;16.70;97.60
57552;DHT22;43379;48.160;14.036;2023-05-29T05:36:33;16.90;97.30
57552;DHT22;43379;48.160;14.036;2023-05-29T05:38:59;17.10;97.30
57552;DHT22;43379;48.160;14.036;2023-05-29T05:41:24;17.20;96.90
57552;DHT22;43379;48.160;14.036;2023-05-29T05:43:50;17.40;96.70
57552;DHT22;43379;48.160;14.036;2023-05-29T05:46:16;17.70;96.40
57552;DHT22;43379;48.160;14.036;2023-05-29T05:48:43;18.00;96.70
57552;DHT22;43379;48.160;14.036;2023-05-29T05:51:08;18.20;96.30
57552;DHT22;43379;48.160;14.036;2023-05-29T05:53:34;18.40;95.80
57552;DHT22;43379;48.160;14.036;2023-05-29T05:56:00;18.50;95.70
57552;DHT22;43379;48.160;14.036;2023-05-29T05:58:26;18.80;94.90
57552;DHT22;43379;48.160;14.036;2023-05-29T06:00:52;19.10;94.80
57552;DHT22;43379;48.160;14.036;2023-05-29T06:03:18;19.30;94.80
57552;DHT22;43379;48.160;14.036;2023-05-29T06:05:43;19.60;93.70
57552;DHT22;43379;48.160;14.036;2023-05-29T06:08:09;19.70;93.50
57552;DHT22;43379;48.160;14.036;2023-05-29T06:10:35;19.80;93.30
57552;DHT22;43379;48.160;14.036;2023-05-29T06:13:01;20.00;93.60
57552;DHT22;43379;48.160;14.036;2023-05-29T06:15:27;20.30;93.40
57552;DHT22;43379;48.160;14.036;2023-05-29T06:17:52;20.70;93.20
57552;DHT22;43379;48.160;14.036;2023-05-29T06:20:21;20.90;92.20
57552;DHT22;43379;48.160;14.036;2023-05-29T06:22:46;21.10;91.80
57552;DHT22;43379;48.160;14.036;2023-05-29T06:25:16;21.20;91.50
57552;DHT22;43379;48.160;14.036;2023-05-29T06:27:42;21.40;91.00
57552;DHT22;43379;48.160;14.036;2023-05-29T06:30:08;21.40;90.30
57552;DHT22;43379;48.160;14.036;2023-05-29T06:32:34;21.50;90.10
57552;DHT22;43379;48.160;14.036;2023-05-29T06:34:59;21.70;90.10
57552;DHT22;43379;48.160;14.036;2023-05-29T06:37:25;21.90;90.00
57552;DHT22;43379;48.160;14.036;2023-05-29T06:39:51;22.10;89.80
57552;DHT22;43379;48.160;14.036;2023-05-29T06:42:17;22.20;88.70
57552;DHT22;43379;48.160;14.036;2023-05-29T06:44:42;22.30;90.10
57552;DHT22;43379;48.160;14.036;2023-05-29T06:47:08;22.60;90.00
57552;DHT22;43379;48.160;14.036;2023-05-29T06:49:33;22.60;87.80
57552;DHT22;43379;48.160;14.036;2023-05-29T06:51:59;22.80;88.80
57552;DHT22;43379;48.160;14.036;2023-05-29T06:54:25;23.10;88.90
57552;DHT22;43379;48.160;14.036;2023-05-29T06:56:51;23.00;86.70
57552;DHT22;43379;48.160;14.036;2023-05-29T06:59:16;23.10;86.30
57552;DHT22;43379;48.160;14.036;2023-05-29T07:01:42;23.20;86.00
57552;DHT22;43379;48.160;14.036;2023-05-29T07:04:08;23.20;86.50
57552;DHT22;43379;48.160;14.036;2023-05-29T07:06:33;23.30;86.90
57552;DHT22;43379;48.160;14.036;2023-05-29T07:08:59;23.50;84.60
57552;DHT22;43379;48.160;14.036;2023-05-29T07:11:25;23.50;83.50
57552;DHT22;43379;48.160;14.036;2023-05-29T07:13:53;23.50;83.30
57552;DHT22;43379;48.160;14.036;2023-05-29T07:16:18;23.50;82.40
57552;DHT22;43379;48.160;14.036;2023-05-29T07:18:44;23.60;81.70
57552;DHT22;43379;48.160;14.036;2023-05-29T07:21:10;23.60;81.90
57552;DHT22;43379;48.160;14.036;2023-05-29T07:23:36;23.70;82.30
57552;DHT22;43379;48.160;14.036;2023-05-29T07:26:02;23.80;81.90
57552;DHT22;43379;48.160;14.036;2023-05-29T07:28:27;23.80;81.80
57552;DHT22;43379;48.160;14.036;2023-05-29T07:30:53;24.00;84.10
57552;DHT22;43379;48.160;14.036;2023-05-29T07:33:19;24.10;81.40
57552;DHT22;43379;48.160;14.036;2023-05-29T07:35:45;24.00;80.40
57552;DHT22;43379;48.160;14.036;2023-05-29T07:38:11;24.10;82.40
57552;DHT22;43379;48.160;14.036;2023-05-29T07:40:36;24.30;82.00
57552;DHT22;43379;48.160;14.036;2023-05-29T07:43:02;24.30;81.50
57552;DHT22;43379;48.160;14.036;2023-05-29T07:45:28;24.60;82.40
57552;DHT22;43379;48.160;14.036;2023-05-29T07:47:53;24.80;84.40
57552;DHT22;43379;48.160;14.036;2023-05-29T07:50:19;25.00;81.30
57552;DHT22;43379;48.160;14.036;2023-05-29T07:52:45;25.00;80.20
57552;DHT22;43379;48.160;14.036;2023-05-29T07:55:11;25.10;80.00
57552;DHT22;43379;48.160;14.036;2023-05-29T07:57:37;25.00;79.60
57552;DHT22;43379;48.160;14.036;2023-05-29T08:00:03;25.00;77.00
57552;DHT22;43379;48.160;14.036;2023-05-29T08:02:34;25.00;78.70
57552;DHT22;43379;48.160;14.036;2023-05-29T08:05:02;25.10;78.00
57552;DHT22;43379;48.160;14.036;2023-05-29T08:07:28;25.30;79.60
57552;DHT22;43379;48.160;14.036;2023-05-29T08:09:54;25.40;76.70
57552;DHT22;43379;48.160;14.036;2023-05-29T08:12:20;25.50;77.10
57552;DHT22;43379;48.160;14.036;2023-05-29T08:14:45;25.70;78.40
57552;DHT22;43379;48.160;14.036;2023-05-29T08:17:11;25.70;78.10
57552;DHT22;43379;48.160;14.036;2023-05-29T08:19:37;26.00;80.60
57552;DHT22;43379;48.160;14.036;2023-05-29T08:22:03;26.30;79.70
57552;DHT22;43379;48.160;14.036;2023-05-29T08:24:28;26.50;77.60
57552;DHT22;43379;48.160;14.036;2023-05-29T08:26:54;26.60;76.70
57552;DHT22;43379;48.160;14.036;2023-05-29T08:29:20;26.60;77.30
57552;DHT22;43379;48.160;14.036;2023-05-29T08:31:45;26.70;74.90
57552;DHT22;43379;48.160;14.036;2023-05-29T08:34:11;26.50;71.00
57552;DHT22;43379;48.160;14.036;2023-05-29T08:36:37;26.40;73.70
57552;DHT22;43379;48.160;14.036;2023-05-29T08:39:03;26.30;72.10
57552;DHT22;43379;48.160;14.036;2023-05-29T08:42:04;26.00;70.50
57552;DHT22;43379;48.160;14.036;2023-05-29T08:44:32;26.10;74.50
57552;DHT22;43379;48.160;14.036;2023-05-29T08:47:01;25.80;71.10
57552;DHT22;43379;48.160;14.036;2023-05-29T08:49:29;25.90;74.00
57552;DHT22;43379;48.160;14.036;2023-05-29T08:52:02;26.00;72.30
57552;DHT22;43379;48.160;14.036;2023-05-29T08:54:31;26.10;71.90
57552;DHT22;43379;48.160;14.036;2023-05-29T08:56:58;26.00;73.40
57552;DHT22;43379;48.160;14.036;2023-05-29T08:59:25;26.20;76.10
57552;DHT22;43379;48.160;14.036;2023-05-29T09:01:52;26.20;74.20
57552;DHT22;43379;48.160;14.036;2023-05-29T09:04:17;26.30;75.40
57552;DHT22;43379;48.160;14.036;2023-05-29T09:06:45;26.20;71.80
57552;DHT22;43379;48.160;14.036;2023-05-29T09:09:12;26.20;71.60
57552;DHT22;43379;48.160;14.036;2023-05-29T09:11:37;26.20;72.70
57552;DHT22;43379;48.160;14.036;2023-05-29T09:14:03;26.30;71.60
57552;DHT22;43379;48.160;14.036;2023-05-29T09:16:29;26.20;71.30
57552;DHT22;43379;48.160;14.036;2023-05-29T09:19:07;26.20;70.80
57552;DHT22;43379;48.160;14.036;2023-05-29T09:21:32;26.20;70.70
57552;DHT22;43379;48.160;14.036;2023-05-29T09:24:05;26.20;73.90
57552;DHT22;43379;48.160;14.036;2023-05-29T09:26:31;26.10;73.30
57552;DHT22;43379;48.160;14.036;2023-05-29T09:28:57;26.00;72.60
57552;DHT22;43379;48.160;14.036;2023-05-29T09:31:23;25.90;73.40
57552;DHT22;43379;48.160;14.036;2023-05-29T09:33:50;26.00;75.60
57552;DHT22;43379;48.160;14.036;2023-05-29T09:36:20;26.00;73.40
57552;DHT22;43379;48.160;14.036;2023-05-29T09:38:47;25.70;71.40
57552;DHT22;43379;48.160;14.036;2023-05-29T09:41:13;25.60;73.80
57552;DHT22;43379;48.160;14.036;2023-05-29T09:43:39;25.70;75.40
57552;DHT22;43379;48.160;14.036;2023-05-29T09:46:06;25.70;74.00
57552;DHT22;43379;48.160;14.036;2023-05-29T09:48:35;25.70;71.70
57552;DHT22;43379;48.160;14.036;2023-05-29T09:51:02;25.50;70.70
57552;DHT22;43379;48.160;14.036;2023-05-29T09:53:28;25.40;73.10
57552;DHT22;43379;48.160;14.036;2023-05-29T09:55:56;25.40;73.80
57552;DHT22;43379;48.160;14.036;2023-05-29T09:58:22;25.60;76.60
57552;DHT22;43379;48.160;14.036;2023-05-29T10:00:49;25.60;73.40
57552;DHT22;43379;48.160;14.036;2023-05-29T10:03:15;25.60;74.90
57552;DHT22;43379;48.160;14.036;2023-05-29T10:05:43;25.70;74.60
57552;DHT22;43379;48.160;14.036;2023-05-29T10:08:14;25.80;73.40
57552;DHT22;43379;48.160;14.036;2023-05-29T10:10:49;25.80;73.10
57552;DHT22;43379;48.160;14.036;2023-05-29T10:13:15;25.80;71.20
57552;DHT22;43379;48.160;14.036;2023-05-29T10:15:44;25.60;70.40
57552;DHT22;43379;48.160;14.036;2023-05-29T10:18:44;25.50;69.70
57552;DHT22;43379;48.160;14.036;2023-05-29T10:21:15;25.00;68.00
57552;DHT22;43379;48.160;14.036;2023-05-29T10:23:47;24.90;71.20
57552;DHT22;43379;48.160;14.036;2023-05-29T10:26:26;25.00;69.80
57552;DHT22;43379;48.160;14.036;2023-05-29T10:29:03;25.00;69.40
57552;DHT22;43379;48.160;14.036;2023-05-29T10:31:43;25.20;70.20
57552;DHT22;43379;48.160;14.036;2023-05-29T10:39:36;25.00;66.50
57552;DHT22;43379;48.160;14.036;2023-05-29T10:42:02;24.60;70.10
57552;DHT22;43379;48.160;14.036;2023-05-29T10:49:23;24.90;72.30
57552;DHT22;43379;48.160;14.036;2023-05-29T10:51:49;25.10;71.40
57552;DHT22;43379;48.160;14.036;2023-05-29T10:54:15;25.10;67.10
57552;DHT22;43379;48.160;14.036;2023-05-29T10:56:51;25.00;65.60
57552;DHT22;43379;48.160;14.036;2023-05-29T10:59:17;25.10;66.10
57552;DHT22;43379;48.160;14.036;2023-05-29T11:01:44;24.80;67.90
57552;DHT22;43379;48.160;14.036;2023-05-29T11:06:48;24.60;68.50
57552;DHT22;43379;48.160;14.036;2023-05-29T11:09:34;24.70;66.50
57552;DHT22;43379;48.160;14.036;2023-05-29T11:15:11;24.70;63.40
57552;DHT22;43379;48.160;14.036;2023-05-29T11:20:27;24.80;65.00
57552;DHT22;43379;48.160;14.036;2023-05-29T11:23:02;24.90;64.10
57552;DHT22;43379;48.160;14.036;2023-05-29T11:25:33;24.80;61.50
57552;DHT22;43379;48.160;14.036;2023-05-29T11:27:59;24.90;62.60
57552;DHT22;43379;48.160;14.036;2023-05-29T11:30:26;24.80;62.20
57552;DHT22;43379;48.160;14.036;2023-05-29T11:32:52;24.90;64.90
57552;DHT22;43379;48.160;14.036;2023-05-29T11:35:21;24.90;64.50
57552;DHT22;43379;48.160;14.036;2023-05-29T11:37:48;24.80;65.00
57552;DHT22;43379;48.160;14.036;2023-05-29T11:40:15;24.90;66.00
57552;DHT22;43379;48.160;14.036;2023-05-29T11:42:45;25.10;67.70
57552;DHT22;43379;48.160;14.036;2023-05-29T11:45:16;25.20;66.00
57552;DHT22;43379;48.160;14.036;2023-05-29T11:47:57;25.30;66.50
57552;DHT22;43379;48.160;14.036;2023-05-29T11:50:27;25.30;67.30
57552;DHT22;43379;48.160;14.036;2023-05-29T11:52:53;25.40;68.70
57552;DHT22;43379;48.160;14.036;2023-05-29T11:55:20;25.50;69.20
57552;DHT22;43379;48.160;14.036;2023-05-29T11:57:59;25.60;69.70
57552;DHT22;43379;48.160;14.036;2023-05-29T12:00:25;25.70;71.20
57552;DHT22;43379;48.160;14.036;2023-05-29T12:02:58;25.80;69.00
57552;DHT22;43379;48.160;14.036;2023-05-29T12:05:23;26.00;69.90
57552;DHT22;43379;48.160;14.036;2023-05-29T12:07:54;25.90;65.60
57552;DHT22;43379;48.160;14.036;2023-05-29T12:10:22;25.70;65.00
57552;DHT22;43379;48.160;14.036;2023-05-29T12:12:52;25.70;65.90
57552;DHT22;43379;48.160;14.036;2023-05-29T12:15:18;25.50;66.70
57552;DHT22;43379;48.160;14.036;2023-05-29T12:17:45;25.50;66.40
57552;DHT22;43379;48.160;14.036;2023-05-29T12:20:12;25.50;67.30
57552;DHT22;43379;48.160;14.036;2023-05-29T12:22:39;25.50;67.70
57552;DHT22;43379;48.160;14.036;2023-05-29T12:25:17;25.60;70.40
57552;DHT22;43379;48.160;14.036;2023-05-29T12:27:44;25.70;71.00
57552;DHT22;43379;48.160;14.036;2023-05-29T12:30:20;25.80;70.90
57552;DHT22;43379;48.160;14.036;2023-05-29T12:32:48;25.80;70.60
57552;DHT22;43379;48.160;14.036;2023-05-29T12:35:16;25.80;69.20
57552;DHT22;43379;48.160;14.036;2023-05-29T12:38:06;25.80;67.20
57552;DHT22;43379;48.160;14.036;2023-05-29T12:40:34;25.40;66.90
57552;DHT22;43379;48.160;14.036;2023-05-29T12:43:05;25.30;67.20
57552;DHT22;43379;48.160;14.036;2023-05-29T12:45:33;25.30;66.30
57552;DHT22;43379;48.160;14.036;2023-05-29T12:48:00;25.20;67.60
57552;DHT22;43379;48.160;14.036;2023-05-29T12:50:37;25.30;71.10
57552;DHT22;43379;48.160;14.036;2023-05-29T12:53:05;25.40;69.80
57552;DHT22;43379;48.160;14.036;2023-05-29T12:55:37;25.40;69.20
57552;DHT22;43379;48.160;14.036;2023-05-29T12:58:14;25.60;73.00
57552;DHT22;43379;48.160;14.036;2023-05-29T13:00:42;25.70;71.70
57552;DHT22;43379;48.160;14.036;2023-05-29T13:03:08;25.60;69.50
57552;DHT22;43379;48.160;14.036;2023-05-29T13:05:34;25.60;66.70
57552;DHT22;43379;48.160;14.036;2023-05-29T13:08:00;25.60;67.30
57552;DHT22;43379;48.160;14.036;2023-05-29T13:10:27;25.60;68.20
57552;DHT22;43379;48.160;14.036;2023-05-29T13:12:54;25.50;67.80
57552;DHT22;43379;48.160;14.036;2023-05-29T13:15:23;25.50;66.40
57552;DHT22;43379;48.160;14.036;2023-05-29T13:17:49;25.50;70.00
57552;DHT22;43379;48.160;14.036;2023-05-29T13:20:16;25.60;70.70
57552;DHT22;43379;48.160;14.036;2023-05-29T13:22:43;25.70;70.00
57552;DHT22;43379;48.160;14.036;2023-05-29T13:25:10;25.50;65.50
57552;DHT22;43379;48.160;14.036;2023-05-29T13:27:38;25.30;66.80
57552;DHT22;43379;48.160;14.036;2023-05-29T13:30:05;25.20;66.50
57552;DHT22;43379;48.160;14.036;2023-05-29T13:32:31;25.20;67.70
57552;DHT22;43379;48.160;14.036;2023-05-29T13:34:57;25.30;68.80
57552;DHT22;43379;48.160;14.036;2023-05-29T13:37:23;25.50;70.70
57552;DHT22;43379;48.160;14.036;2023-05-29T13:39:49;25.50;71.00
57552;DHT22;43379;48.160;14.036;2023-05-29T13:42:15;25.30;68.00
57552;DHT22;43379;48.160;14.036;2023-05-29T13:44:40;25.20;65.60
57552;DHT22;43379;48.160;14.036;2023-05-29T13:47:07;25.00;64.90
57552;DHT22;43379;48.160;14.036;2023-05-29T13:49:34;24.80;66.20
57552;DHT22;43379;48.160;14.036;2023-05-29T13:52:00;24.90;67.20
57552;DHT22;43379;48.160;14.036;2023-05-29T13:54:26;24.90;67.60
57552;DHT22;43379;48.160;14.036;2023-05-29T13:56:55;24.90;68.00
57552;DHT22;43379;48.160;14.036;2023-05-29T13:59:22;24.90;68.60
57552;DHT22;43379;48.160;14.036;2023-05-29T14:01:47;24.90;68.00
57552;DHT22;43379;48.160;14.036;2023-05-29T14:04:13;24.90;69.20
57552;DHT22;43379;48.160;14.036;2023-05-29T14:06:39;25.00;69.90
57552;DHT22;43379;48.160;14.036;2023-05-29T14:09:05;24.80;68.40
57552;DHT22;43379;48.160;14.036;2023-05-29T14:11:38;24.80;68.40
57552;DHT22;43379;48.160;14.036;2023-05-29T14:14:04;24.80;68.10
57552;DHT22;43379;48.160;14.036;2023-05-29T14:16:30;24.60;68.60
57552;DHT22;43379;48.160;14.036;2023-05-29T14:18:55;24.60;68.60
57552;DHT22;43379;48.160;14.036;2023-05-29T14:21:21;24.60;70.20
57552;DHT22;43379;48.160;14.036;2023-05-29T14:23:47;24.80;71.00
57552;DHT22;43379;48.160;14.036;2023-05-29T14:26:12;24.90;72.20
57552;DHT22;43379;48.160;14.036;2023-05-29T14:28:38;25.00;71.30
57552;DHT22;43379;48.160;14.036;2023-05-29T14:31:07;25.10;72.50
57552;DHT22;43379;48.160;14.036;2023-05-29T14:33:33;25.20;72.50
57552;DHT22;43379;48.160;14.036;2023-05-29T14:35:59;25.20;71.10
57552;DHT22;43379;48.160;14.036;2023-05-29T14:38:25;25.30;71.70
57552;DHT22;43379;48.160;14.036;2023-05-29T14:40:51;25.30;70.80
57552;DHT22;43379;48.160;14.036;2023-05-29T14:43:17;25.30;69.20
57552;DHT22;43379;48.160;14.036;2023-05-29T14:45:43;25.30;68.70
57552;DHT22;43379;48.160;14.036;2023-05-29T14:48:08;25.30;69.70
57552;DHT22;43379;48.160;14.036;2023-05-29T14:50:35;25.30;70.40
57552;DHT22;43379;48.160;14.036;2023-05-29T14:53:01;25.30;69.60
57552;DHT22;43379;48.160;14.036;2023-05-29T14:55:27;25.20;68.80
57552;DHT22;43379;48.160;14.036;2023-05-29T14:57:53;25.20;70.10
57552;DHT22;43379;48.160;14.036;2023-05-29T15:00:18;25.20;69.60
57552;DHT22;43379;48.160;14.036;2023-05-29T15:02:44;25.20;69.00
57552;DHT22;43379;48.160;14.036;2023-05-29T15:05:10;25.20;68.00
57552;DHT22;43379;48.160;14.036;2023-05-29T15:07:36;25.10;68.30
57552;DHT22;43379;48.160;14.036;2023-05-29T15:10:02;25.00;69.20
57552;DHT22;43379;48.160;14.036;2023-05-29T15:12:29;24.90;68.80
57552;DHT22;43379;48.160;14.036;2023-05-29T15:14:54;24.90;69.40
57552;DHT22;43379;48.160;14.036;2023-05-29T15:17:20;25.00;71.20
57552;DHT22;43379;48.160;14.036;2023-05-29T15:19:46;25.00;70.30
57552;DHT22;43379;48.160;14.036;2023-05-29T15:22:11;25.00;70.50
57552;DHT22;43379;48.160;14.036;2023-05-29T15:24:37;25.10;70.60
57552;DHT22;43379;48.160;14.036;2023-05-29T15:27:03;25.10;70.20
57552;DHT22;43379;48.160;14.036;2023-05-29T15:29:33;25.00;69.70
57552;DHT22;43379;48.160;14.036;2023-05-29T15:31:59;25.00;70.00
57552;DHT22;43379;48.160;14.036;2023-05-29T15:34:25;25.00;70.90
57552;DHT22;43379;48.160;14.036;2023-05-29T15:36:51;25.00;72.40
57552;DHT22;43379;48.160;14.036;2023-05-29T15:39:16;24.90;70.10
57552;DHT22;43379;48.160;14.036;2023-05-29T15:41:42;24.80;69.50